createdAt,value
2017-08-28T00:01:10.423Z,29.17
2017-08-28T00:03:37.999Z,29.73
2017-08-28T00:06:06.198Z,29.40
2017-08-28T00:08:33.812Z,28.57
2017-08-28T00:11:01.396Z,30.37
2017-08-28T00:13:28.976Z,31.43
2017-08-28T00:15:57.499Z,31.07
2017-08-28T00:18:25.083Z,32.07
2017-08-28T00:20:52.670Z,32.97
2017-08-28T00:23:20.274Z,32.40
2017-08-28T00:25:47.867Z,33.43
2017-08-28T00:28:15.447Z,34.17
2017-08-28T00:30:43.061Z,33.67
2017-08-28T00:33:11.051Z,36.03
2017-08-28T00:35:38.624Z,33.70
2017-08-28T00:38:06.220Z,35.00
2017-08-28T00:40:33.803Z,35.50
2017-08-28T00:43:01.394Z,36.20
2017-08-28T00:45:28.983Z,36.40
2017-08-28T00:47:56.561Z,38.17
2017-08-28T00:50:24.164Z,38.90
2017-08-28T00:52:51.751Z,39.37
2017-08-28T00:55:19.336Z,40.60
2017-08-28T00:57:46.933Z,41.17
2017-08-28T01:00:14.741Z,42.70
2017-08-28T01:02:42.354Z,40.97
2017-08-28T01:05:09.944Z,42.17
2017-08-28T01:07:38.218Z,41.70
2017-08-28T01:10:05.773Z,40.30
2017-08-28T01:12:33.338Z,41.73
2017-08-28T01:15:00.925Z,43.40
2017-08-28T01:17:28.507Z,44.60
2017-08-28T01:19:56.075Z,43.03
2017-08-28T01:22:23.687Z,42.67
2017-08-28T01:24:51.254Z,45.83
2017-08-28T01:27:18.830Z,43.77
2017-08-28T01:29:46.390Z,45.67
2017-08-28T01:32:14.017Z,46.40
2017-08-28T01:34:41.598Z,46.00
2017-08-28T01:37:09.172Z,44.73
2017-08-28T01:39:36.773Z,45.23
2017-08-28T01:42:04.413Z,46.70
2017-08-28T01:44:31.996Z,46.10
2017-08-28T01:46:59.579Z,43.63
2017-08-28T01:49:27.154Z,43.27
2017-08-28T01:51:54.710Z,42.77
2017-08-28T01:54:22.302Z,43.30
2017-08-28T01:56:49.870Z,44.57
2017-08-28T01:59:17.450Z,44.53
2017-08-28T02:01:45.007Z,43.40
2017-08-28T02:04:12.599Z,44.13
2017-08-28T02:06:40.205Z,46.83
2017-08-28T02:09:07.799Z,45.77
2017-08-28T02:11:35.400Z,45.73
2017-08-28T02:14:03.005Z,47.50
2017-08-28T02:16:30.602Z,46.00
2017-08-28T02:18:58.163Z,45.33
2017-08-28T02:21:25.775Z,45.80
2017-08-28T02:23:53.374Z,47.70
2017-08-28T02:26:20.974Z,49.90
2017-08-28T02:28:48.583Z,46.93
2017-08-28T02:31:16.181Z,47.47
2017-08-28T02:33:43.779Z,47.30
2017-08-28T02:36:11.357Z,51.30
2017-08-28T02:38:39.857Z,49.47
2017-08-28T02:41:07.455Z,49.80
2017-08-28T02:43:35.031Z,49.30
2017-08-28T02:46:02.824Z,46.60
2017-08-28T02:48:30.424Z,50.60
2017-08-28T02:50:58.022Z,48.63
2017-08-28T02:53:25.614Z,50.57
2017-08-28T02:55:53.223Z,47.20
2017-08-28T02:58:20.805Z,48.87
2017-08-28T03:00:48.394Z,48.30
2017-08-28T03:03:15.972Z,46.40
2017-08-28T03:05:43.543Z,46.43
2017-08-28T03:08:11.142Z,47.97
2017-08-28T03:10:39.597Z,45.57
2017-08-28T03:13:07.170Z,46.10
2017-08-28T03:15:34.763Z,47.70
2017-08-28T03:18:02.342Z,45.43
2017-08-28T03:20:29.921Z,45.60
2017-08-28T03:22:57.493Z,42.90
2017-08-28T03:25:25.106Z,45.90
2017-08-28T03:27:52.671Z,43.10
2017-08-28T03:30:21.025Z,43.17
2017-08-28T03:32:48.619Z,43.97
2017-08-28T03:35:16.220Z,39.17
2017-08-28T03:37:43.845Z,40.90
2017-08-28T03:40:11.405Z,42.00
2017-08-28T03:42:39.050Z,41.00
2017-08-28T03:45:06.669Z,41.67
2017-08-28T03:47:34.272Z,40.70
2017-08-28T03:50:01.855Z,41.10
2017-08-28T03:52:29.441Z,40.20
2017-08-28T03:54:57.015Z,38.90
2017-08-28T03:57:24.598Z,41.50
2017-08-28T03:59:52.199Z,40.93
2017-08-28T04:02:19.792Z,42.23
2017-08-28T04:04:47.419Z,40.80
2017-08-28T04:07:14.998Z,39.40
2017-08-28T04:09:42.629Z,41.10
2017-08-28T04:12:10.228Z,41.63
2017-08-28T04:14:37.845Z,42.17
2017-08-28T04:17:05.429Z,41.70
2017-08-28T04:19:33.003Z,39.50
2017-08-28T04:22:01.249Z,40.80
2017-08-28T04:24:28.875Z,40.60
2017-08-28T04:26:56.454Z,39.70
2017-08-28T04:29:24.065Z,39.57
2017-08-28T04:31:51.668Z,40.43
2017-08-28T04:34:19.243Z,40.77
2017-08-28T04:36:46.869Z,39.97
2017-08-28T04:39:14.465Z,38.50
2017-08-28T04:41:42.089Z,41.90
2017-08-28T04:44:09.720Z,43.47
2017-08-28T04:46:37.308Z,41.70
2017-08-28T04:49:05.452Z,43.47
2017-08-28T04:51:33.026Z,42.63
2017-08-28T04:54:00.621Z,44.50
2017-08-28T04:56:28.209Z,42.93
2017-08-28T04:58:55.816Z,42.70
2017-08-28T05:01:23.373Z,42.47
2017-08-28T05:03:50.946Z,43.70
2017-08-28T05:06:18.536Z,44.43
2017-08-28T05:08:46.136Z,43.70
2017-08-28T05:11:13.746Z,46.40
2017-08-28T05:13:41.341Z,46.83
2017-08-28T05:16:08.907Z,46.37
2017-08-28T05:18:36.494Z,47.60
2017-08-28T05:21:04.077Z,47.83
2017-08-28T05:23:31.634Z,46.70
2017-08-28T05:25:59.228Z,49.73
2017-08-28T05:28:26.806Z,49.20
2017-08-28T05:30:54.435Z,48.93
2017-08-28T05:33:21.988Z,47.80
2017-08-28T05:35:50.315Z,48.50
2017-08-28T05:38:17.923Z,50.70
2017-08-28T05:40:46.043Z,48.17
2017-08-28T05:43:13.632Z,52.27
2017-08-28T05:45:41.199Z,52.10
2017-08-28T05:48:08.779Z,50.93
2017-08-28T05:50:36.408Z,48.50
2017-08-28T05:53:04.024Z,48.40
2017-08-28T05:55:31.596Z,47.67
2017-08-28T05:57:59.197Z,49.40
2017-08-28T06:00:26.807Z,48.50
2017-08-28T06:02:54.374Z,46.07
2017-08-28T06:05:21.952Z,48.60
2017-08-28T06:07:49.529Z,46.40
2017-08-28T06:10:17.123Z,45.67
2017-08-28T06:12:44.722Z,46.53
2017-08-28T06:15:12.312Z,44.83
2017-08-28T06:17:39.894Z,45.20
2017-08-28T06:20:07.510Z,45.47
2017-08-28T06:22:35.085Z,43.17
2017-08-28T06:25:02.690Z,42.40
2017-08-28T06:27:30.298Z,41.37
2017-08-28T06:29:58.659Z,40.77
2017-08-28T06:32:26.239Z,38.97
2017-08-28T06:34:53.823Z,38.90
2017-08-28T06:37:22.251Z,41.10
2017-08-28T06:39:49.849Z,38.67
2017-08-28T06:42:17.497Z,40.60
2017-08-28T06:44:45.810Z,41.83
2017-08-28T06:47:13.401Z,39.50
2017-08-28T06:49:40.976Z,40.23
2017-08-28T06:52:08.578Z,37.10
2017-08-28T06:54:36.143Z,38.77
2017-08-28T06:57:03.743Z,38.33
2017-08-28T06:59:31.616Z,38.47
2017-08-28T07:01:59.178Z,37.83
2017-08-28T07:04:26.803Z,38.10
2017-08-28T07:06:54.397Z,37.30
2017-08-28T07:09:22.069Z,37.93
2017-08-28T07:11:49.674Z,37.60
2017-08-28T07:14:18.461Z,35.37
2017-08-28T07:16:46.834Z,34.33
2017-08-28T07:19:14.418Z,35.97
2017-08-28T07:21:42.700Z,32.47
2017-08-28T07:24:10.307Z,31.00
2017-08-28T07:26:37.878Z,28.17
2017-08-28T07:29:05.458Z,27.60
2017-08-28T07:31:33.057Z,26.43
2017-08-28T07:34:02.631Z,24.13
2017-08-28T07:36:30.307Z,24.40
2017-08-28T07:38:57.906Z,23.33
2017-08-28T07:41:25.489Z,23.00
2017-08-28T07:43:58.055Z,22.47
2017-08-28T07:46:25.677Z,22.50
2017-08-28T07:48:53.235Z,22.87
2017-08-28T07:51:20.827Z,22.20
2017-08-28T07:53:48.441Z,21.60
2017-08-28T07:56:16.045Z,20.73
2017-08-28T07:58:43.686Z,19.90
2017-08-28T08:01:11.265Z,22.33
2017-08-28T08:03:38.864Z,20.70
2017-08-28T08:06:07.730Z,20.93
2017-08-28T08:08:35.458Z,19.87
2017-08-28T08:11:05.683Z,19.13
2017-08-28T08:13:33.384Z,20.60
2017-08-28T08:16:01.001Z,20.37
2017-08-28T08:18:28.607Z,20.80
2017-08-28T08:20:56.187Z,21.43
2017-08-28T08:23:23.795Z,20.40
2017-08-28T08:25:51.435Z,18.67
2017-08-28T08:28:19.031Z,17.97
2017-08-28T08:30:46.633Z,18.33
2017-08-28T08:33:14.229Z,18.27
2017-08-28T08:35:41.826Z,19.97
2017-08-28T08:38:09.404Z,18.60
2017-08-28T08:40:37.011Z,18.13
2017-08-28T08:43:04.601Z,17.80
2017-08-28T08:45:32.179Z,18.37
2017-08-28T08:47:59.783Z,18.33
2017-08-28T08:50:27.372Z,17.80
2017-08-28T08:52:54.996Z,18.37
2017-08-28T08:55:22.575Z,17.50
2017-08-28T08:57:50.178Z,17.07
2017-08-28T09:00:17.933Z,17.43
2017-08-28T09:02:45.585Z,17.07
2017-08-28T09:05:13.200Z,16.10
2017-08-28T09:07:40.763Z,16.33
2017-08-28T09:10:08.392Z,16.07
2017-08-28T09:12:36.007Z,16.23
2017-08-28T09:15:03.630Z,16.10
2017-08-28T09:17:31.223Z,16.00
2017-08-28T09:19:58.820Z,15.30
2017-08-28T09:22:26.419Z,16.20
2017-08-28T09:24:53.995Z,15.07
2017-08-28T09:27:21.590Z,14.53
2017-08-28T09:29:49.188Z,14.90
2017-08-28T09:32:16.789Z,14.80
2017-08-28T09:34:44.360Z,15.23
2017-08-28T09:37:11.959Z,14.27
2017-08-28T09:39:40.512Z,15.70
2017-08-28T09:42:08.111Z,14.17
2017-08-28T09:44:35.742Z,14.50
2017-08-28T09:47:05.016Z,13.80
2017-08-28T09:49:33.384Z,13.70
2017-08-28T09:52:00.970Z,13.40
2017-08-28T09:54:28.598Z,12.87
2017-08-28T09:56:56.163Z,13.70
2017-08-28T09:59:23.785Z,14.80
2017-08-28T10:01:51.342Z,13.50
2017-08-28T10:04:18.920Z,13.20
2017-08-28T10:06:46.519Z,12.90
2017-08-28T10:09:14.125Z,13.50
2017-08-28T10:11:41.735Z,13.33
2017-08-28T10:14:09.302Z,13.80
2017-08-28T10:16:36.927Z,13.47
2017-08-28T10:19:04.522Z,13.33
2017-08-28T10:21:32.100Z,13.30
2017-08-28T10:23:59.676Z,12.90
2017-08-28T10:26:27.325Z,12.70
2017-08-28T10:28:54.934Z,12.90
2017-08-28T10:31:22.530Z,12.50
2017-08-28T10:33:50.155Z,12.53
2017-08-28T10:36:17.737Z,13.23
2017-08-28T10:38:45.318Z,11.93
2017-08-28T10:41:12.882Z,11.60
2017-08-28T10:43:41.350Z,11.83
2017-08-28T10:46:08.935Z,12.00
2017-08-28T10:48:36.560Z,11.40
2017-08-28T10:51:04.132Z,10.73
2017-08-28T10:53:31.727Z,11.00
2017-08-28T10:55:59.988Z,10.17
2017-08-28T10:58:27.591Z,10.00
2017-08-28T11:00:55.538Z,9.00
2017-08-28T11:03:23.112Z,8.90
2017-08-28T11:05:50.707Z,9.67
2017-08-28T11:08:18.316Z,9.40
2017-08-28T11:10:45.918Z,9.17
2017-08-28T11:13:13.490Z,8.70
2017-08-28T11:15:41.050Z,8.73
2017-08-28T11:18:08.729Z,8.30
2017-08-28T11:20:41.535Z,7.70
2017-08-28T11:23:09.570Z,8.60
2017-08-28T11:25:38.860Z,8.07
2017-08-28T11:28:06.458Z,7.40
2017-08-28T11:30:34.023Z,7.33
2017-08-28T11:33:01.593Z,7.87
2017-08-28T11:35:29.238Z,8.37
2017-08-28T11:37:56.828Z,8.73
2017-08-28T11:40:24.431Z,7.60
2017-08-28T11:42:51.998Z,8.13
2017-08-28T11:45:19.570Z,7.90
2017-08-28T11:47:47.203Z,7.20
2017-08-28T11:50:14.789Z,7.47
2017-08-28T11:52:42.392Z,7.23
2017-08-28T11:55:09.978Z,8.13
2017-08-28T11:57:37.562Z,7.43
2017-08-28T12:00:05.196Z,7.60
2017-08-28T12:02:33.362Z,7.60
2017-08-28T12:05:00.953Z,7.50
2017-08-28T12:07:28.554Z,7.90
2017-08-28T12:09:56.127Z,7.10
2017-08-28T12:12:23.713Z,7.67
2017-08-28T12:14:52.171Z,7.70
2017-08-28T12:17:19.760Z,6.87
2017-08-28T12:19:47.323Z,7.90
2017-08-28T12:22:14.934Z,7.20
2017-08-28T12:24:42.487Z,7.47
2017-08-28T12:27:11.258Z,7.00
2017-08-28T12:29:38.854Z,7.10
2017-08-28T12:32:08.417Z,7.70
2017-08-28T12:34:36.033Z,7.80
2017-08-28T12:37:03.607Z,7.70
2017-08-28T12:39:31.199Z,7.60
2017-08-28T12:42:00.128Z,7.80
2017-08-28T12:44:27.699Z,7.37
2017-08-28T12:46:55.320Z,7.07
2017-08-28T12:49:22.876Z,7.37
2017-08-28T12:51:50.443Z,7.13
2017-08-28T12:54:18.022Z,7.50
2017-08-28T12:56:45.617Z,7.07
2017-08-28T12:59:13.247Z,6.33
2017-08-28T13:01:40.804Z,7.40
2017-08-28T13:04:08.411Z,6.77
2017-08-28T13:06:36.007Z,6.30
2017-08-28T13:09:03.630Z,6.50
2017-08-28T13:11:31.199Z,6.20
2017-08-28T13:13:58.759Z,6.30
2017-08-28T13:16:27.713Z,6.60
2017-08-28T13:18:55.304Z,6.70
2017-08-28T13:21:25.650Z,6.73
2017-08-28T13:23:53.227Z,7.20
2017-08-28T13:26:20.835Z,6.90
2017-08-28T13:28:48.423Z,7.20
2017-08-28T13:31:16.035Z,6.90
2017-08-28T13:33:45.011Z,7.50
2017-08-28T13:36:12.580Z,7.30
2017-08-28T13:38:40.213Z,7.00
2017-08-28T13:41:07.767Z,6.77
2017-08-28T13:43:35.339Z,6.40
2017-08-28T13:46:02.936Z,6.93
2017-08-28T13:48:30.534Z,8.73
2017-08-28T13:50:58.130Z,9.57
2017-08-28T13:53:25.688Z,9.20
2017-08-28T13:55:53.269Z,8.83
2017-08-28T13:58:20.856Z,9.50
2017-08-28T14:00:49.238Z,8.70
2017-08-28T14:03:16.832Z,8.87
2017-08-28T14:08:19.196Z,11.20
2017-08-28T14:10:46.766Z,10.83
2017-08-28T14:13:14.421Z,10.80
2017-08-28T14:15:42.010Z,11.00
2017-08-28T14:18:09.612Z,10.40
2017-08-28T14:20:37.248Z,10.77
2017-08-28T14:23:04.914Z,10.90
2017-08-28T14:25:37.376Z,10.43
2017-08-28T14:28:05.040Z,10.47
2017-08-28T14:30:32.623Z,11.17
2017-08-28T14:33:00.207Z,11.60
2017-08-28T14:35:28.797Z,10.97
2017-08-28T14:37:56.611Z,11.20
2017-08-28T14:40:24.211Z,10.47
2017-08-28T14:42:51.770Z,11.00
2017-08-28T14:45:19.356Z,11.57
2017-08-28T14:47:46.938Z,10.30
2017-08-28T14:50:15.697Z,10.00
2017-08-28T14:52:43.372Z,10.30
2017-08-28T14:55:11.395Z,10.23
2017-08-28T14:57:39.310Z,10.90
2017-08-28T15:00:09.645Z,9.80
2017-08-28T15:02:37.562Z,9.53
2017-08-28T15:05:05.356Z,10.60
2017-08-28T15:07:33.117Z,9.27
2017-08-28T15:10:00.749Z,9.40
2017-08-28T15:12:30.170Z,9.53
2017-08-28T15:14:57.756Z,9.10
2017-08-28T15:17:25.306Z,9.57
2017-08-28T15:19:52.869Z,9.37
2017-08-28T15:22:20.479Z,9.13
2017-08-28T15:24:48.441Z,8.67
2017-08-28T15:27:16.012Z,9.83
2017-08-28T15:29:43.631Z,9.20
2017-08-28T15:32:11.216Z,9.30
2017-08-28T15:34:38.790Z,9.33
2017-08-28T15:37:06.410Z,9.77
2017-08-28T15:39:33.971Z,9.77
2017-08-28T15:42:01.552Z,9.60
2017-08-28T15:44:29.113Z,9.07
2017-08-28T15:46:56.704Z,10.00
2017-08-28T15:49:24.282Z,9.60
2017-08-28T15:51:51.900Z,9.43
2017-08-28T15:54:19.480Z,9.40
2017-08-28T15:56:47.071Z,9.80
2017-08-28T15:59:14.663Z,9.60
2017-08-28T16:01:42.254Z,10.80
2017-08-28T16:04:09.883Z,9.87
2017-08-28T16:06:37.456Z,10.17
2017-08-28T16:09:05.067Z,9.87
2017-08-28T16:11:32.666Z,9.27
2017-08-28T16:14:00.265Z,10.33
2017-08-28T16:16:28.663Z,8.63
2017-08-28T16:18:56.267Z,9.77
2017-08-28T16:21:23.874Z,9.67
2017-08-28T16:23:51.494Z,9.67
2017-08-28T16:26:19.054Z,9.73
2017-08-28T16:28:46.639Z,9.20
2017-08-28T16:31:15.191Z,9.40
2017-08-28T16:33:42.819Z,9.43
2017-08-28T16:36:10.471Z,9.10
2017-08-28T16:38:38.093Z,8.77
2017-08-28T16:41:05.659Z,8.70
2017-08-28T16:43:33.300Z,9.37
2017-08-28T16:46:00.869Z,9.00
2017-08-28T16:48:28.427Z,9.40
2017-08-28T16:50:56.009Z,9.27
2017-08-28T16:53:24.542Z,9.13
2017-08-28T16:55:52.144Z,9.10
2017-08-28T16:58:19.748Z,8.50
2017-08-28T17:00:47.349Z,8.77
2017-08-28T17:03:14.954Z,9.70
2017-08-28T17:05:42.572Z,8.40
2017-08-28T17:08:10.165Z,9.40
2017-08-28T17:10:37.758Z,9.27
2017-08-28T17:13:05.354Z,8.80
2017-08-28T17:15:32.940Z,9.27
2017-08-28T17:18:00.523Z,9.77
2017-08-28T17:20:28.087Z,9.80
2017-08-28T17:22:55.718Z,9.53
2017-08-28T17:25:23.378Z,9.53
2017-08-28T17:27:51.025Z,9.20
2017-08-28T17:30:18.636Z,10.40
2017-08-28T17:32:46.226Z,10.30
2017-08-28T17:35:13.832Z,9.20
2017-08-28T17:37:41.391Z,10.30
2017-08-28T17:40:08.993Z,10.13
2017-08-28T17:42:37.839Z,10.53
2017-08-28T17:45:05.497Z,9.80
2017-08-28T17:47:33.096Z,10.00
2017-08-28T17:50:00.685Z,10.60
2017-08-28T17:52:28.271Z,10.43
2017-08-28T17:54:55.827Z,9.87
2017-08-28T17:57:23.411Z,10.33
2017-08-28T17:59:51.130Z,10.17
2017-08-28T18:02:18.704Z,10.33
2017-08-28T18:04:46.264Z,10.60
2017-08-28T18:07:14.588Z,10.70
2017-08-28T18:09:44.190Z,10.63
2017-08-28T18:12:11.752Z,11.47
2017-08-28T18:14:39.351Z,10.80
2017-08-28T18:17:06.951Z,11.43
2017-08-28T18:19:34.600Z,11.33
2017-08-28T18:22:02.771Z,11.60
2017-08-28T18:24:30.354Z,10.80
2017-08-28T18:26:57.957Z,10.90
2017-08-28T18:29:25.570Z,10.37
2017-08-28T18:31:53.187Z,10.57
2017-08-28T18:34:20.795Z,10.83
2017-08-28T18:36:48.419Z,13.40
2017-08-28T18:39:16.021Z,12.00
2017-08-28T18:41:43.622Z,11.60
2017-08-28T18:44:11.238Z,11.67
2017-08-28T18:46:39.859Z,12.00
2017-08-28T18:49:07.481Z,11.40
2017-08-28T18:51:36.004Z,12.10
2017-08-28T18:54:03.575Z,12.47
2017-08-28T18:56:32.139Z,12.17
2017-08-28T18:58:59.729Z,13.00
2017-08-28T19:01:27.336Z,12.50
2017-08-28T19:03:54.923Z,12.10
2017-08-28T19:06:22.535Z,12.90
2017-08-28T19:08:50.152Z,12.43
2017-08-28T19:11:17.755Z,12.70
2017-08-28T19:13:45.396Z,13.63
2017-08-28T19:16:13.961Z,11.87
2017-08-28T19:18:41.625Z,14.00
2017-08-28T19:21:09.221Z,14.37
2017-08-28T19:23:36.827Z,13.70
2017-08-28T19:26:04.479Z,13.20
2017-08-28T19:28:32.059Z,14.13
2017-08-28T19:30:59.654Z,15.10
2017-08-28T19:33:41.574Z,14.13
2017-08-28T19:36:09.171Z,14.40
2017-08-28T19:38:36.743Z,14.87
2017-08-28T19:41:04.360Z,14.70
2017-08-28T19:43:31.950Z,14.60
2017-08-28T19:45:59.552Z,15.47
2017-08-28T19:48:27.136Z,14.80
2017-08-28T19:50:54.745Z,15.20
2017-08-28T19:53:22.384Z,15.13
2017-08-28T19:55:49.977Z,14.83
2017-08-28T19:58:17.960Z,16.00
2017-08-28T20:00:45.565Z,15.47
2017-08-28T20:03:13.180Z,15.07
2017-08-28T20:05:40.761Z,14.30
2017-08-28T20:08:08.364Z,14.83
2017-08-28T20:10:35.964Z,14.97
2017-08-28T20:13:03.566Z,14.33
2017-08-28T20:15:31.524Z,14.17
2017-08-28T20:17:59.091Z,15.13
2017-08-28T20:20:26.759Z,14.87
2017-08-28T20:22:54.350Z,15.00
2017-08-28T20:25:21.956Z,14.50
2017-08-28T20:27:49.567Z,14.50
2017-08-28T20:30:17.131Z,14.37
2017-08-28T20:32:44.715Z,15.03
2017-08-28T20:35:12.302Z,16.33
2017-08-28T20:37:39.887Z,14.63
2017-08-28T20:40:07.489Z,15.50
2017-08-28T20:42:35.103Z,15.77
2017-08-28T20:45:02.697Z,15.23
2017-08-28T20:47:30.344Z,15.93
2017-08-28T20:49:57.931Z,15.40
2017-08-28T20:52:25.506Z,15.83
2017-08-28T20:54:53.131Z,15.70
2017-08-28T20:57:20.712Z,16.07
2017-08-28T20:59:48.299Z,15.90
2017-08-28T21:02:15.887Z,15.50
2017-08-28T21:04:43.460Z,16.43
2017-08-28T21:07:11.099Z,16.50
2017-08-28T21:09:38.681Z,16.30
2017-08-28T21:12:07.105Z,16.50
2017-08-28T21:14:35.625Z,16.33
2017-08-28T21:17:03.234Z,16.33
2017-08-28T21:19:30.850Z,16.77
2017-08-28T21:21:58.462Z,16.70
2017-08-28T21:24:26.473Z,16.97
2017-08-28T21:26:54.031Z,16.70
2017-08-28T21:29:21.676Z,16.43
2017-08-28T21:31:49.275Z,16.17
2017-08-28T21:34:16.858Z,16.90
2017-08-28T21:36:44.419Z,17.27
2017-08-28T21:39:11.999Z,16.13
2017-08-28T21:41:39.612Z,16.90
2017-08-28T21:44:07.225Z,18.43
2017-08-28T21:46:34.825Z,17.40
2017-08-28T21:49:02.395Z,17.67
2017-08-28T21:51:29.974Z,17.20
2017-08-28T21:53:57.598Z,17.50
2017-08-28T21:56:25.185Z,18.17
2017-08-28T21:58:53.629Z,18.07
2017-08-28T22:01:21.259Z,18.00
2017-08-28T22:03:48.842Z,17.20
2017-08-28T22:06:16.497Z,18.60
2017-08-28T22:08:44.113Z,18.83
2017-08-28T22:11:11.717Z,18.47
2017-08-28T22:13:39.305Z,18.57
2017-08-28T22:16:06.879Z,18.17
2017-08-28T22:18:36.108Z,17.53
2017-08-28T22:21:03.676Z,17.50
2017-08-28T22:23:31.286Z,18.60
2017-08-28T22:25:58.899Z,18.67
2017-08-28T22:28:26.474Z,18.50
2017-08-28T22:30:54.069Z,18.17
2017-08-28T22:33:21.675Z,19.27
2017-08-28T22:35:49.280Z,19.63
2017-08-28T22:38:16.868Z,18.70
2017-08-28T22:40:44.495Z,19.90
2017-08-28T22:43:12.048Z,20.10
2017-08-28T22:45:39.658Z,18.97
2017-08-28T22:48:07.245Z,19.23
2017-08-28T22:50:34.819Z,18.30
2017-08-28T22:53:02.408Z,18.80
2017-08-28T22:55:29.986Z,19.63
2017-08-28T22:57:57.545Z,19.60
2017-08-28T23:00:25.121Z,19.90
2017-08-28T23:02:52.710Z,19.47
2017-08-28T23:05:20.290Z,20.33
2017-08-28T23:07:47.862Z,19.50
2017-08-28T23:10:15.455Z,21.10
2017-08-28T23:12:43.034Z,20.00
2017-08-28T23:15:10.617Z,20.37
2017-08-28T23:17:38.197Z,20.23
2017-08-28T23:20:05.780Z,19.97
2017-08-28T23:22:33.366Z,19.83
2017-08-28T23:25:00.915Z,19.50
2017-08-28T23:27:28.529Z,18.83
2017-08-28T23:29:56.099Z,19.30
2017-08-28T23:32:23.664Z,19.23
2017-08-28T23:34:51.250Z,20.00
2017-08-28T23:37:18.830Z,19.47
2017-08-28T23:39:46.400Z,19.40
2017-08-28T23:42:13.989Z,19.97
2017-08-28T23:44:41.571Z,19.73
2017-08-28T23:47:09.181Z,19.63
2017-08-28T23:49:36.749Z,20.83
2017-08-28T23:52:04.330Z,20.60
2017-08-28T23:54:31.918Z,20.60
2017-08-28T23:56:59.479Z,20.60
2017-08-28T23:59:27.072Z,21.17
